sensor_id;sensor_type;location;lat;lon;timestamp;pressure;altitude;pressure_sealevel;temperature;humidity
16525;BME280;8375;33.594;-117.718;2023-03-31T00:01:12;100217.22;;;15.81;54.39
16525;BME280;8375;33.594;-117.718;2023-03-31T00:03:41;100215.66;;;15.88;53.29
16525;BME280;8375;33.594;-117.718;2023-03-31T00:06:11;100220.63;;;15.91;53.86
16525;BME280;8375;33.594;-117.718;2023-03-31T00:08:45;100221.03;;;16.05;53.91
16525;BME280;8375;33.594;-117.718;2023-03-31T00:11:16;100231.03;;;16.09;51.70
16525;BME280;8375;33.594;-117.718;2023-03-31T00:13:47;100234.13;;;16.05;51.04
16525;BME280;8375;33.594;-117.718;2023-03-31T00:16:15;100236.28;;;16.09;52.63
16525;BME280;8375;33.594;-117.718;2023-03-31T00:18:45;100229.56;;;16.07;52.95
16525;BME280;8375;33.594;-117.718;2023-03-31T00:21:18;100232.56;;;15.94;51.40
16525;BME280;8375;33.594;-117.718;2023-03-31T00:23:56;100234.75;;;15.98;53.48
16525;BME280;8375;33.594;-117.718;2023-03-31T00:26:25;100236.03;;;15.94;53.56
16525;BME280;8375;33.594;-117.718;2023-03-31T00:28:56;100232.88;;;15.91;52.75
16525;BME280;8375;33.594;-117.718;2023-03-31T00:31:25;100248.94;;;15.96;53.07
16525;BME280;8375;33.594;-117.718;2023-03-31T00:33:54;100247.75;;;15.72;52.86
16525;BME280;8375;33.594;-117.718;2023-03-31T00:36:24;100244.28;;;15.72;52.44
16525;BME280;8375;33.594;-117.718;2023-03-31T00:38:54;100250.19;;;15.74;52.82
16525;BME280;8375;33.594;-117.718;2023-03-31T00:41:24;100253.34;;;15.59;52.37
16525;BME280;8375;33.594;-117.718;2023-03-31T00:44:05;100250.22;;;15.55;53.59
16525;BME280;8375;33.594;-117.718;2023-03-31T00:46:39;100259.03;;;15.54;53.91
16525;BME280;8375;33.594;-117.718;2023-03-31T00:49:15;100260.91;;;15.44;53.68
16525;BME280;8375;33.594;-117.718;2023-03-31T00:51:48;100257.38;;;15.35;53.71
16525;BME280;8375;33.594;-117.718;2023-03-31T00:54:20;100254.19;;;15.14;53.79
16525;BME280;8375;33.594;-117.718;2023-03-31T00:56:52;100254.66;;;15.09;54.50
16525;BME280;8375;33.594;-117.718;2023-03-31T00:59:27;100258.75;;;14.84;55.92
16525;BME280;8375;33.594;-117.718;2023-03-31T01:01:59;100261.19;;;14.57;55.84
16525;BME280;8375;33.594;-117.718;2023-03-31T01:04:32;100255.28;;;14.45;56.87
16525;BME280;8375;33.594;-117.718;2023-03-31T01:07:07;100257.78;;;14.37;57.43
16525;BME280;8375;33.594;-117.718;2023-03-31T01:09:39;100257.66;;;14.38;57.75
16525;BME280;8375;33.594;-117.718;2023-03-31T01:12:08;100266.41;;;14.47;57.86
16525;BME280;8375;33.594;-117.718;2023-03-31T01:14:40;100262.84;;;14.48;56.73
16525;BME280;8375;33.594;-117.718;2023-03-31T01:17:12;100273.88;;;14.32;56.71
16525;BME280;8375;33.594;-117.718;2023-03-31T01:19:56;100268.38;;;14.35;57.90
16525;BME280;8375;33.594;-117.718;2023-03-31T01:22:55;100263.84;;;14.28;57.36
16525;BME280;8375;33.594;-117.718;2023-03-31T01:28:59;100282.97;;;13.99;59.61
16525;BME280;8375;33.594;-117.718;2023-03-31T01:34:56;100300.28;;;13.80;60.82
16525;BME280;8375;33.594;-117.718;2023-03-31T01:40:51;100298.44;;;13.41;63.51
16525;BME280;8375;33.594;-117.718;2023-03-31T01:43:28;100300.63;;;13.36;64.11
16525;BME280;8375;33.594;-117.718;2023-03-31T01:46:03;100296.75;;;13.30;65.61
16525;BME280;8375;33.594;-117.718;2023-03-31T01:48:43;100300.53;;;13.16;65.03
16525;BME280;8375;33.594;-117.718;2023-03-31T01:51:16;100310.53;;;13.11;65.83
16525;BME280;8375;33.594;-117.718;2023-03-31T01:53:50;100316.34;;;12.84;65.74
16525;BME280;8375;33.594;-117.718;2023-03-31T01:56:27;100315.47;;;12.73;66.98
16525;BME280;8375;33.594;-117.718;2023-03-31T01:59:03;100315.66;;;12.60;68.85
16525;BME280;8375;33.594;-117.718;2023-03-31T02:01:38;100314.91;;;12.49;69.87
16525;BME280;8375;33.594;-117.718;2023-03-31T02:04:13;100311.69;;;12.35;70.07
16525;BME280;8375;33.594;-117.718;2023-03-31T02:06:45;100321.06;;;12.26;71.68
16525;BME280;8375;33.594;-117.718;2023-03-31T02:09:21;100317.44;;;12.17;72.86
16525;BME280;8375;33.594;-117.718;2023-03-31T02:11:54;100321.50;;;12.10;71.81
16525;BME280;8375;33.594;-117.718;2023-03-31T02:14:27;100327.19;;;12.04;72.73
16525;BME280;8375;33.594;-117.718;2023-03-31T02:16:58;100331.69;;;12.02;73.51
16525;BME280;8375;33.594;-117.718;2023-03-31T02:19:32;100336.22;;;11.88;73.67
16525;BME280;8375;33.594;-117.718;2023-03-31T02:22:03;100337.97;;;11.88;73.59
16525;BME280;8375;33.594;-117.718;2023-03-31T02:24:34;100338.34;;;11.83;74.62
16525;BME280;8375;33.594;-117.718;2023-03-31T02:27:09;100338.50;;;11.70;74.43
16525;BME280;8375;33.594;-117.718;2023-03-31T02:29:40;100358.72;;;11.67;75.10
16525;BME280;8375;33.594;-117.718;2023-03-31T02:32:14;100367.25;;;11.57;75.51
16525;BME280;8375;33.594;-117.718;2023-03-31T02:34:46;100376.00;;;11.56;75.87
16525;BME280;8375;33.594;-117.718;2023-03-31T02:37:14;100380.97;;;11.48;76.37
16525;BME280;8375;33.594;-117.718;2023-03-31T02:39:45;100383.09;;;11.43;77.06
16525;BME280;8375;33.594;-117.718;2023-03-31T02:42:17;100384.16;;;11.40;77.76
16525;BME280;8375;33.594;-117.718;2023-03-31T02:44:46;100387.59;;;11.29;77.74
16525;BME280;8375;33.594;-117.718;2023-03-31T02:47:16;100386.88;;;11.27;77.66
16525;BME280;8375;33.594;-117.718;2023-03-31T02:49:48;100398.31;;;11.13;78.03
16525;BME280;8375;33.594;-117.718;2023-03-31T02:52:33;100402.34;;;11.18;80.05
16525;BME280;8375;33.594;-117.718;2023-03-31T02:55:24;100405.41;;;11.11;80.07
16525;BME280;8375;33.594;-117.718;2023-03-31T02:58:23;100409.66;;;11.12;80.12
16525;BME280;8375;33.594;-117.718;2023-03-31T03:01:07;100418.63;;;11.08;79.50
16525;BME280;8375;33.594;-117.718;2023-03-31T03:03:44;100425.84;;;11.05;79.68
16525;BME280;8375;33.594;-117.718;2023-03-31T03:06:25;100433.03;;;11.01;80.34
16525;BME280;8375;33.594;-117.718;2023-03-31T03:09:12;100437.50;;;10.99;81.56
16525;BME280;8375;33.594;-117.718;2023-03-31T03:11:49;100443.78;;;10.96;80.85
16525;BME280;8375;33.594;-117.718;2023-03-31T03:14:27;100447.09;;;10.98;81.45
16525;BME280;8375;33.594;-117.718;2023-03-31T03:17:01;100452.03;;;10.90;80.91
16525;BME280;8375;33.594;-117.718;2023-03-31T03:19:33;100454.44;;;10.80;82.14
16525;BME280;8375;33.594;-117.718;2023-03-31T03:22:02;100452.25;;;10.87;83.71
16525;BME280;8375;33.594;-117.718;2023-03-31T03:24:31;100455.06;;;10.84;83.43
16525;BME280;8375;33.594;-117.718;2023-03-31T03:27:00;100457.28;;;10.77;82.57
16525;BME280;8375;33.594;-117.718;2023-03-31T03:29:30;100455.53;;;10.78;83.92
16525;BME280;8375;33.594;-117.718;2023-03-31T03:31:59;100456.56;;;10.75;83.76
16525;BME280;8375;33.594;-117.718;2023-03-31T03:34:28;100462.91;;;10.71;83.76
16525;BME280;8375;33.594;-117.718;2023-03-31T03:36:57;100461.25;;;10.70;83.74
16525;BME280;8375;33.594;-117.718;2023-03-31T03:39:26;100463.28;;;10.66;84.07
16525;BME280;8375;33.594;-117.718;2023-03-31T03:41:55;100474.91;;;10.61;84.19
16525;BME280;8375;33.594;-117.718;2023-03-31T03:44:24;100479.50;;;10.57;84.80
16525;BME280;8375;33.594;-117.718;2023-03-31T03:46:54;100476.88;;;10.57;85.86
16525;BME280;8375;33.594;-117.718;2023-03-31T03:49:23;100479.84;;;10.52;85.51
16525;BME280;8375;33.594;-117.718;2023-03-31T03:51:51;100478.19;;;10.51;86.63
16525;BME280;8375;33.594;-117.718;2023-03-31T03:54:20;100482.88;;;10.46;86.55
16525;BME280;8375;33.594;-117.718;2023-03-31T03:56:49;100475.91;;;10.47;87.36
16525;BME280;8375;33.594;-117.718;2023-03-31T03:59:18;100490.97;;;10.41;87.24
16525;BME280;8375;33.594;-117.718;2023-03-31T04:01:49;100494.91;;;10.34;87.19
16525;BME280;8375;33.594;-117.718;2023-03-31T04:04:21;100495.97;;;10.32;87.24
16525;BME280;8375;33.594;-117.718;2023-03-31T04:06:51;100503.47;;;10.23;87.50
16525;BME280;8375;33.594;-117.718;2023-03-31T04:09:20;100507.22;;;10.19;88.13
16525;BME280;8375;33.594;-117.718;2023-03-31T04:11:53;100509.53;;;10.11;88.18
16525;BME280;8375;33.594;-117.718;2023-03-31T04:14:23;100514.09;;;10.07;88.58
16525;BME280;8375;33.594;-117.718;2023-03-31T04:16:53;100513.56;;;10.02;89.11
16525;BME280;8375;33.594;-117.718;2023-03-31T04:19:25;100523.44;;;9.97;88.82
16525;BME280;8375;33.594;-117.718;2023-03-31T04:21:55;100528.75;;;9.95;89.55
16525;BME280;8375;33.594;-117.718;2023-03-31T04:24:29;100536.00;;;9.90;89.83
16525;BME280;8375;33.594;-117.718;2023-03-31T04:26:59;100540.69;;;9.85;90.73
16525;BME280;8375;33.594;-117.718;2023-03-31T04:29:28;100550.22;;;9.84;91.60
16525;BME280;8375;33.594;-117.718;2023-03-31T04:31:59;100545.25;;;9.81;91.81
16525;BME280;8375;33.594;-117.718;2023-03-31T04:34:29;100553.75;;;9.71;91.80
16525;BME280;8375;33.594;-117.718;2023-03-31T04:37:01;100555.63;;;9.68;92.56
16525;BME280;8375;33.594;-117.718;2023-03-31T04:39:31;100555.31;;;9.60;92.57
16525;BME280;8375;33.594;-117.718;2023-03-31T04:42:02;100565.97;;;9.56;93.18
16525;BME280;8375;33.594;-117.718;2023-03-31T04:44:31;100566.28;;;9.51;93.20
16525;BME280;8375;33.594;-117.718;2023-03-31T04:47:00;100559.75;;;9.45;93.86
16525;BME280;8375;33.594;-117.718;2023-03-31T04:49:30;100562.53;;;9.42;94.09
16525;BME280;8375;33.594;-117.718;2023-03-31T04:52:01;100566.69;;;9.45;94.68
16525;BME280;8375;33.594;-117.718;2023-03-31T04:54:35;100569.28;;;9.45;94.55
16525;BME280;8375;33.594;-117.718;2023-03-31T04:57:06;100568.16;;;9.49;94.60
16525;BME280;8375;33.594;-117.718;2023-03-31T04:59:34;100570.09;;;9.45;94.54
16525;BME280;8375;33.594;-117.718;2023-03-31T05:02:03;100576.81;;;9.35;94.46
16525;BME280;8375;33.594;-117.718;2023-03-31T05:04:34;100577.97;;;9.31;94.86
16525;BME280;8375;33.594;-117.718;2023-03-31T05:07:04;100584.00;;;9.31;95.25
16525;BME280;8375;33.594;-117.718;2023-03-31T05:09:32;100583.13;;;9.31;95.38
16525;BME280;8375;33.594;-117.718;2023-03-31T05:12:02;100584.50;;;9.36;95.93
16525;BME280;8375;33.594;-117.718;2023-03-31T05:14:31;100596.81;;;9.33;95.36
16525;BME280;8375;33.594;-117.718;2023-03-31T05:17:06;100591.50;;;9.21;94.89
16525;BME280;8375;33.594;-117.718;2023-03-31T05:19:36;100594.03;;;9.23;96.27
16525;BME280;8375;33.594;-117.718;2023-03-31T05:22:07;100600.75;;;9.25;96.70
16525;BME280;8375;33.594;-117.718;2023-03-31T05:24:36;100595.03;;;9.20;95.76
16525;BME280;8375;33.594;-117.718;2023-03-31T05:27:05;100598.94;;;9.13;95.09
16525;BME280;8375;33.594;-117.718;2023-03-31T05:29:33;100601.41;;;9.02;94.82
16525;BME280;8375;33.594;-117.718;2023-03-31T05:32:02;100606.22;;;8.93;96.06
16525;BME280;8375;33.594;-117.718;2023-03-31T05:34:36;100605.81;;;8.87;96.25
16525;BME280;8375;33.594;-117.718;2023-03-31T05:37:05;100616.44;;;8.82;96.45
16525;BME280;8375;33.594;-117.718;2023-03-31T05:39:33;100619.88;;;8.83;97.25
16525;BME280;8375;33.594;-117.718;2023-03-31T05:42:02;100623.09;;;8.86;97.84
16525;BME280;8375;33.594;-117.718;2023-03-31T05:44:31;100618.09;;;8.83;97.51
16525;BME280;8375;33.594;-117.718;2023-03-31T05:47:03;100622.38;;;8.70;97.13
16525;BME280;8375;33.594;-117.718;2023-03-31T05:49:32;100634.59;;;8.53;97.95
16525;BME280;8375;33.594;-117.718;2023-03-31T05:52:02;100633.66;;;8.69;100.00
16525;BME280;8375;33.594;-117.718;2023-03-31T05:54:31;100648.72;;;8.76;99.51
16525;BME280;8375;33.594;-117.718;2023-03-31T05:57:06;100647.16;;;8.74;98.08
16525;BME280;8375;33.594;-117.718;2023-03-31T05:59:36;100659.34;;;8.72;98.07
16525;BME280;8375;33.594;-117.718;2023-03-31T06:02:06;100650.03;;;8.69;97.75
16525;BME280;8375;33.594;-117.718;2023-03-31T06:04:35;100651.69;;;8.70;97.99
16525;BME280;8375;33.594;-117.718;2023-03-31T06:07:06;100653.09;;;8.61;96.73
16525;BME280;8375;33.594;-117.718;2023-03-31T06:09:35;100656.78;;;8.57;97.48
16525;BME280;8375;33.594;-117.718;2023-03-31T06:12:05;100666.84;;;8.47;97.44
16525;BME280;8375;33.594;-117.718;2023-03-31T06:14:34;100665.81;;;8.35;97.17
16525;BME280;8375;33.594;-117.718;2023-03-31T06:17:03;100673.22;;;8.27;98.12
16525;BME280;8375;33.594;-117.718;2023-03-31T06:19:31;100674.03;;;8.13;98.03
16525;BME280;8375;33.594;-117.718;2023-03-31T06:22:01;100671.53;;;8.12;98.63
16525;BME280;8375;33.594;-117.718;2023-03-31T06:24:36;100681.25;;;8.22;100.00
16525;BME280;8375;33.594;-117.718;2023-03-31T06:27:07;100680.78;;;8.30;100.00
16525;BME280;8375;33.594;-117.718;2023-03-31T06:29:36;100687.63;;;8.31;100.00
16525;BME280;8375;33.594;-117.718;2023-03-31T06:32:05;100693.34;;;8.22;98.87
16525;BME280;8375;33.594;-117.718;2023-03-31T06:34:34;100691.97;;;8.16;99.28
16525;BME280;8375;33.594;-117.718;2023-03-31T06:37:04;100684.28;;;8.15;99.63
16525;BME280;8375;33.594;-117.718;2023-03-31T06:39:41;100690.56;;;8.11;99.58
16525;BME280;8375;33.594;-117.718;2023-03-31T06:42:11;100690.91;;;8.04;99.63
16525;BME280;8375;33.594;-117.718;2023-03-31T06:44:41;100701.44;;;8.01;100.00
16525;BME280;8375;33.594;-117.718;2023-03-31T06:47:10;100694.88;;;7.96;100.00
16525;BME280;8375;33.594;-117.718;2023-03-31T06:49:39;100692.78;;;7.86;100.00
16525;BME280;8375;33.594;-117.718;2023-03-31T06:52:08;100694.91;;;7.80;100.00
16525;BME280;8375;33.594;-117.718;2023-03-31T06:54:38;100698.50;;;7.77;100.00
16525;BME280;8375;33.594;-117.718;2023-03-31T06:57:07;100697.16;;;7.86;100.00
16525;BME280;8375;33.594;-117.718;2023-03-31T06:59:36;100699.38;;;7.92;100.00
16525;BME280;8375;33.594;-117.718;2023-03-31T07:02:05;100687.91;;;7.82;100.00
16525;BME280;8375;33.594;-117.718;2023-03-31T07:04:34;100688.03;;;7.64;100.00
16525;BME280;8375;33.594;-117.718;2023-03-31T07:07:03;100684.38;;;7.68;100.00
16525;BME280;8375;33.594;-117.718;2023-03-31T07:09:32;100683.13;;;7.59;100.00
16525;BME280;8375;33.594;-117.718;2023-03-31T07:12:05;100685.69;;;7.59;100.00
16525;BME280;8375;33.594;-117.718;2023-03-31T07:14:37;100683.56;;;7.52;100.00
16525;BME280;8375;33.594;-117.718;2023-03-31T07:17:07;100689.13;;;7.60;100.00
16525;BME280;8375;33.594;-117.718;2023-03-31T07:19:36;100691.97;;;7.55;100.00
16525;BME280;8375;33.594;-117.718;2023-03-31T07:22:09;100684.47;;;7.51;100.00
16525;BME280;8375;33.594;-117.718;2023-03-31T07:24:38;100677.13;;;7.59;100.00
16525;BME280;8375;33.594;-117.718;2023-03-31T07:27:10;100686.53;;;7.60;100.00
16525;BME280;8375;33.594;-117.718;2023-03-31T07:29:39;100689.69;;;7.65;100.00
16525;BME280;8375;33.594;-117.718;2023-03-31T07:32:08;100691.03;;;7.72;100.00
16525;BME280;8375;33.594;-117.718;2023-03-31T07:34:37;100695.63;;;7.67;100.00
16525;BME280;8375;33.594;-117.718;2023-03-31T07:37:07;100694.72;;;7.52;100.00
16525;BME280;8375;33.594;-117.718;2023-03-31T07:39:35;100691.47;;;7.48;100.00
16525;BME280;8375;33.594;-117.718;2023-03-31T07:42:04;100688.06;;;7.48;100.00
16525;BME280;8375;33.594;-117.718;2023-03-31T07:44:35;100673.34;;;7.34;100.00
16525;BME280;8375;33.594;-117.718;2023-03-31T07:47:04;100687.91;;;7.35;100.00
16525;BME280;8375;33.594;-117.718;2023-03-31T07:49:34;100689.94;;;7.30;100.00
16525;BME280;8375;33.594;-117.718;2023-03-31T07:52:02;100694.41;;;7.42;100.00
16525;BME280;8375;33.594;-117.718;2023-03-31T07:54:31;100694.88;;;7.49;100.00
16525;BME280;8375;33.594;-117.718;2023-03-31T07:57:01;100702.56;;;7.51;100.00
16525;BME280;8375;33.594;-117.718;2023-03-31T07:59:31;100698.72;;;7.42;100.00
16525;BME280;8375;33.594;-117.718;2023-03-31T08:02:02;100705.84;;;7.38;100.00
16525;BME280;8375;33.594;-117.718;2023-03-31T08:04:30;100707.75;;;7.34;100.00
16525;BME280;8375;33.594;-117.718;2023-03-31T08:06:59;100712.91;;;7.34;100.00
16525;BME280;8375;33.594;-117.718;2023-03-31T08:09:28;100713.25;;;7.28;100.00
16525;BME280;8375;33.594;-117.718;2023-03-31T08:11:57;100707.94;;;7.15;100.00
16525;BME280;8375;33.594;-117.718;2023-03-31T08:14:25;100711.94;;;7.05;100.00
16525;BME280;8375;33.594;-117.718;2023-03-31T08:16:54;100722.59;;;6.99;100.00
16525;BME280;8375;33.594;-117.718;2023-03-31T08:19:25;100723.72;;;6.93;100.00
16525;BME280;8375;33.594;-117.718;2023-03-31T08:21:54;100726.41;;;6.92;100.00
16525;BME280;8375;33.594;-117.718;2023-03-31T08:24:23;100724.91;;;6.87;100.00
16525;BME280;8375;33.594;-117.718;2023-03-31T08:26:51;100727.25;;;7.08;100.00
16525;BME280;8375;33.594;-117.718;2023-03-31T08:29:22;100725.59;;;7.07;100.00
16525;BME280;8375;33.594;-117.718;2023-03-31T08:31:53;100727.91;;;7.12;100.00
16525;BME280;8375;33.594;-117.718;2023-03-31T08:34:22;100727.25;;;7.24;100.00
16525;BME280;8375;33.594;-117.718;2023-03-31T08:36:53;100729.81;;;7.08;100.00
16525;BME280;8375;33.594;-117.718;2023-03-31T08:39:22;100737.00;;;7.03;100.00
16525;BME280;8375;33.594;-117.718;2023-03-31T08:41:56;100737.00;;;7.03;100.00
16525;BME280;8375;33.594;-117.718;2023-03-31T08:44:30;100736.13;;;6.86;100.00
16525;BME280;8375;33.594;-117.718;2023-03-31T08:47:01;100735.53;;;6.81;100.00
16525;BME280;8375;33.594;-117.718;2023-03-31T08:49:37;100744.19;;;6.80;100.00
16525;BME280;8375;33.594;-117.718;2023-03-31T08:52:11;100743.28;;;6.81;100.00
16525;BME280;8375;33.594;-117.718;2023-03-31T08:54:43;100744.34;;;6.77;100.00
16525;BME280;8375;33.594;-117.718;2023-03-31T08:57:18;100747.84;;;6.76;100.00
16525;BME280;8375;33.594;-117.718;2023-03-31T08:59:49;100758.19;;;6.92;100.00
16525;BME280;8375;33.594;-117.718;2023-03-31T09:02:23;100765.06;;;7.09;100.00
16525;BME280;8375;33.594;-117.718;2023-03-31T09:05:09;100754.03;;;6.89;100.00
16525;BME280;8375;33.594;-117.718;2023-03-31T09:07:50;100761.13;;;6.68;100.00
16525;BME280;8375;33.594;-117.718;2023-03-31T09:10:32;100767.75;;;6.74;100.00
16525;BME280;8375;33.594;-117.718;2023-03-31T09:13:10;100768.81;;;6.70;100.00
16525;BME280;8375;33.594;-117.718;2023-03-31T09:15:49;100769.13;;;6.64;100.00
16525;BME280;8375;33.594;-117.718;2023-03-31T09:18:28;100767.84;;;6.55;100.00
16525;BME280;8375;33.594;-117.718;2023-03-31T09:21:03;100773.25;;;6.50;100.00
16525;BME280;8375;33.594;-117.718;2023-03-31T09:23:39;100770.94;;;6.62;100.00
16525;BME280;8375;33.594;-117.718;2023-03-31T09:26:19;100780.81;;;6.71;100.00
16525;BME280;8375;33.594;-117.718;2023-03-31T09:28:49;100787.97;;;6.82;100.00
16525;BME280;8375;33.594;-117.718;2023-03-31T09:31:20;100779.75;;;6.57;100.00
16525;BME280;8375;33.594;-117.718;2023-03-31T09:33:52;100783.13;;;6.42;100.00
16525;BME280;8375;33.594;-117.718;2023-03-31T09:36:22;100785.38;;;6.48;100.00
16525;BME280;8375;33.594;-117.718;2023-03-31T09:38:53;100787.50;;;6.40;100.00
16525;BME280;8375;33.594;-117.718;2023-03-31T09:41:22;100790.31;;;6.35;100.00
16525;BME280;8375;33.594;-117.718;2023-03-31T09:43:51;100789.63;;;6.31;100.00
16525;BME280;8375;33.594;-117.718;2023-03-31T09:46:25;100786.16;;;6.33;100.00
16525;BME280;8375;33.594;-117.718;2023-03-31T09:49:01;100787.22;;;6.28;100.00
16525;BME280;8375;33.594;-117.718;2023-03-31T09:51:34;100789.03;;;6.26;100.00
16525;BME280;8375;33.594;-117.718;2023-03-31T09:54:11;100787.28;;;6.27;100.00
16525;BME280;8375;33.594;-117.718;2023-03-31T09:56:47;100793.28;;;6.27;100.00
16525;BME280;8375;33.594;-117.718;2023-03-31T09:59:19;100794.34;;;6.23;100.00
16525;BME280;8375;33.594;-117.718;2023-03-31T10:01:50;100798.03;;;6.18;100.00
16525;BME280;8375;33.594;-117.718;2023-03-31T10:04:23;100804.34;;;6.12;100.00
16525;BME280;8375;33.594;-117.718;2023-03-31T10:06:53;100805.16;;;6.12;100.00
16525;BME280;8375;33.594;-117.718;2023-03-31T10:09:25;100800.44;;;6.03;100.00
16525;BME280;8375;33.594;-117.718;2023-03-31T10:11:58;100799.00;;;5.97;100.00
16525;BME280;8375;33.594;-117.718;2023-03-31T10:14:37;100801.63;;;5.96;100.00
16525;BME280;8375;33.594;-117.718;2023-03-31T10:17:13;100804.91;;;5.99;100.00
16525;BME280;8375;33.594;-117.718;2023-03-31T10:19:47;100807.28;;;6.04;100.00
16525;BME280;8375;33.594;-117.718;2023-03-31T10:22:27;100812.28;;;6.07;100.00
16525;BME280;8375;33.594;-117.718;2023-03-31T10:25:09;100812.09;;;6.12;100.00
16525;BME280;8375;33.594;-117.718;2023-03-31T10:27:39;100812.00;;;6.13;100.00
16525;BME280;8375;33.594;-117.718;2023-03-31T10:30:10;100807.88;;;6.09;100.00
16525;BME280;8375;33.594;-117.718;2023-03-31T10:32:44;100809.31;;;5.97;100.00
16525;BME280;8375;33.594;-117.718;2023-03-31T10:35:22;100809.03;;;6.04;100.00
16525;BME280;8375;33.594;-117.718;2023-03-31T10:37:55;100810.31;;;6.12;100.00
16525;BME280;8375;33.594;-117.718;2023-03-31T10:40:27;100812.69;;;6.17;100.00
16525;BME280;8375;33.594;-117.718;2023-03-31T10:43:04;100819.72;;;6.13;100.00
16525;BME280;8375;33.594;-117.718;2023-03-31T10:45:42;100830.66;;;6.19;100.00
16525;BME280;8375;33.594;-117.718;2023-03-31T10:48:18;100827.09;;;6.21;100.00
16525;BME280;8375;33.594;-117.718;2023-03-31T10:50:47;100819.22;;;6.24;100.00
16525;BME280;8375;33.594;-117.718;2023-03-31T10:53:17;100820.28;;;6.20;100.00
16525;BME280;8375;33.594;-117.718;2023-03-31T10:55:55;100828.00;;;6.20;100.00
16525;BME280;8375;33.594;-117.718;2023-03-31T10:58:37;100822.91;;;6.19;100.00
16525;BME280;8375;33.594;-117.718;2023-03-31T11:01:18;100827.00;;;6.23;100.00
16525;BME280;8375;33.594;-117.718;2023-03-31T11:04:35;100831.06;;;6.46;100.00
16525;BME280;8375;33.594;-117.718;2023-03-31T11:07:20;100830.91;;;6.31;100.00
16525;BME280;8375;33.594;-117.718;2023-03-31T11:10:08;100833.63;;;6.28;100.00
16525;BME280;8375;33.594;-117.718;2023-03-31T11:12:43;100829.22;;;6.30;100.00
16525;BME280;8375;33.594;-117.718;2023-03-31T11:15:21;100831.56;;;6.35;100.00
16525;BME280;8375;33.594;-117.718;2023-03-31T11:18:21;100827.69;;;6.09;100.00
16525;BME280;8375;33.594;-117.718;2023-03-31T11:21:00;100834.97;;;5.99;100.00
16525;BME280;8375;33.594;-117.718;2023-03-31T11:23:40;100837.09;;;5.91;100.00
16525;BME280;8375;33.594;-117.718;2023-03-31T11:26:13;100837.47;;;5.83;100.00
16525;BME280;8375;33.594;-117.718;2023-03-31T11:28:56;100844.34;;;5.82;100.00
16525;BME280;8375;33.594;-117.718;2023-03-31T11:31:34;100845.34;;;5.80;100.00
16525;BME280;8375;33.594;-117.718;2023-03-31T11:37:13;100838.66;;;5.76;100.00
16525;BME280;8375;33.594;-117.718;2023-03-31T11:39:55;100842.41;;;5.68;100.00
16525;BME280;8375;33.594;-117.718;2023-03-31T11:42:33;100844.38;;;5.63;100.00
16525;BME280;8375;33.594;-117.718;2023-03-31T11:45:14;100836.69;;;5.62;100.00
16525;BME280;8375;33.594;-117.718;2023-03-31T11:47:45;100842.41;;;5.49;100.00
16525;BME280;8375;33.594;-117.718;2023-03-31T11:50:17;100833.94;;;5.66;100.00
16525;BME280;8375;33.594;-117.718;2023-03-31T11:52:52;100838.22;;;5.66;100.00
16525;BME280;8375;33.594;-117.718;2023-03-31T11:55:25;100838.38;;;5.63;100.00
16525;BME280;8375;33.594;-117.718;2023-03-31T11:58:01;100841.09;;;5.60;100.00
16525;BME280;8375;33.594;-117.718;2023-03-31T12:00:35;100840.13;;;5.62;100.00
16525;BME280;8375;33.594;-117.718;2023-03-31T12:03:11;100849.84;;;5.55;100.00
16525;BME280;8375;33.594;-117.718;2023-03-31T12:05:44;100843.66;;;5.60;100.00
16525;BME280;8375;33.594;-117.718;2023-03-31T12:08:17;100846.81;;;5.66;100.00
16525;BME280;8375;33.594;-117.718;2023-03-31T12:10:53;100848.13;;;5.56;100.00
16525;BME280;8375;33.594;-117.718;2023-03-31T12:13:38;100848.13;;;5.56;100.00
16525;BME280;8375;33.594;-117.718;2023-03-31T12:16:16;100853.69;;;5.47;100.00
16525;BME280;8375;33.594;-117.718;2023-03-31T12:18:56;100854.09;;;5.56;100.00
16525;BME280;8375;33.594;-117.718;2023-03-31T12:21:28;100850.28;;;5.46;100.00
16525;BME280;8375;33.594;-117.718;2023-03-31T12:23:58;100857.72;;;5.52;100.00
16525;BME280;8375;33.594;-117.718;2023-03-31T12:26:35;100845.22;;;5.45;100.00
16525;BME280;8375;33.594;-117.718;2023-03-31T12:29:16;100853.97;;;5.40;100.00
16525;BME280;8375;33.594;-117.718;2023-03-31T12:31:53;100846.31;;;5.39;100.00
16525;BME280;8375;33.594;-117.718;2023-03-31T12:34:25;100842.63;;;5.45;100.00
16525;BME280;8375;33.594;-117.718;2023-03-31T12:37:06;100843.19;;;5.32;100.00
16525;BME280;8375;33.594;-117.718;2023-03-31T12:39:48;100835.19;;;5.38;100.00
16525;BME280;8375;33.594;-117.718;2023-03-31T12:42:39;100842.53;;;5.27;100.00
16525;BME280;8375;33.594;-117.718;2023-03-31T12:45:20;100831.97;;;5.33;100.00
16525;BME280;8375;33.594;-117.718;2023-03-31T12:51:08;100829.72;;;5.25;100.00
16525;BME280;8375;33.594;-117.718;2023-03-31T12:53:50;100816.00;;;5.25;100.00
16525;BME280;8375;33.594;-117.718;2023-03-31T12:56:22;100822.41;;;5.16;100.00
16525;BME280;8375;33.594;-117.718;2023-03-31T12:58:51;100816.28;;;5.19;100.00
16525;BME280;8375;33.594;-117.718;2023-03-31T13:01:20;100813.03;;;5.15;100.00
16525;BME280;8375;33.594;-117.718;2023-03-31T13:04:07;100811.91;;;5.21;100.00
16525;BME280;8375;33.594;-117.718;2023-03-31T13:06:53;100812.03;;;5.18;100.00
16525;BME280;8375;33.594;-117.718;2023-03-31T13:09:46;100816.53;;;5.33;100.00
16525;BME280;8375;33.594;-117.718;2023-03-31T13:12:20;100820.56;;;5.39;100.00
16525;BME280;8375;33.594;-117.718;2023-03-31T13:14:53;100817.66;;;5.47;100.00
16525;BME280;8375;33.594;-117.718;2023-03-31T13:17:30;100828.56;;;5.52;100.00
16525;BME280;8375;33.594;-117.718;2023-03-31T13:20:34;100821.00;;;5.49;100.00